Time;durP1;ratioP1;P1;durP2;ratioP2;P2;SDS_P1;SDS_P2;PMS_P1;PMS_P2;Temp;Humidity;BMP_temperature;BMP_pressure;BME280_temperature;BME280_humidity;BME280_pressure;Samples;Min_cycle;Max_cycle;Signal;HPM_P1;HPM_P2
2023/04/06 00:01:25;;;;;;;6.20;4.72;;;2.20;99.90;;;;;;5095383;28;20048;-79
2023/04/06 00:03:51;;;;;;;7.28;4.85;;;1.90;99.90;;;;;;5095074;28;20040;-79
2023/04/06 00:06:16;;;;;;;7.13;5.18;;;1.90;99.90;;;;;;5094342;28;20139;-79
2023/04/06 00:08:43;;;;;;;10.98;5.18;;;1.80;99.90;;;;;;5111206;28;20384;-79
2023/04/06 00:11:08;;;;;;;5.50;4.47;;;1.80;99.90;;;;;;5095363;28;20223;-79
2023/04/06 00:13:34;;;;;;;7.63;4.82;;;1.80;99.90;;;;;;5095190;28;20488;-78
2023/04/06 00:16:00;;;;;;;6.93;4.72;;;2.40;99.90;;;;;;5093834;28;20044;-79
2023/04/06 00:18:26;;;;;;;7.13;5.22;;;1.70;99.90;;;;;;5094883;28;20476;-79
2023/04/06 00:20:52;;;;;;;8.20;5.18;;;1.60;99.90;;;;;;5095069;28;20046;-79
2023/04/06 00:23:17;;;;;;;7.88;4.97;;;1.60;99.90;;;;;;5094709;28;20052;-79
2023/04/06 00:25:43;;;;;;;7.55;4.90;;;1.50;99.90;;;;;;5094625;28;20051;-79
2023/04/06 00:28:09;;;;;;;7.43;5.28;;;1.50;99.90;;;;;;5095106;28;20040;-79
2023/04/06 00:30:35;;;;;;;7.43;5.20;;;1.50;99.90;;;;;;5093459;28;20036;-79
2023/04/06 00:33:00;;;;;;;8.60;5.15;;;1.40;99.90;;;;;;5094970;28;20079;-79
2023/04/06 00:35:26;;;;;;;6.35;4.93;;;1.40;99.90;;;;;;5093456;28;20083;-79
2023/04/06 00:37:52;;;;;;;7.22;4.95;;;1.40;99.90;;;;;;5093732;28;20039;-79
2023/04/06 00:40:17;;;;;;;7.28;5.40;;;1.30;99.90;;;;;;5094693;28;20048;-79
2023/04/06 00:42:43;;;;;;;9.98;5.30;;;1.30;99.90;;;;;;5094604;28;20036;-79
2023/04/06 00:45:09;;;;;;;8.90;5.28;;;1.30;99.90;;;;;;5094535;28;20102;-79
2023/04/06 00:47:35;;;;;;;9.00;5.60;;;1.30;99.90;;;;;;5094579;28;20047;-79
2023/04/06 00:50:01;;;;;;;10.23;5.80;;;1.20;99.90;;;;;;5094287;28;20040;-78
2023/04/06 00:52:27;;;;;;;7.75;5.13;;;2.40;99.90;;;;;;5093380;28;20223;-79
2023/04/06 00:54:53;;;;;;;7.97;6.05;;;1.20;99.90;;;;;;5093018;28;20097;-79
2023/04/06 00:57:19;;;;;;;8.00;5.45;;;1.20;99.90;;;;;;5093897;28;20052;-78
2023/04/06 00:59:45;;;;;;;7.90;5.82;;;1.20;99.90;;;;;;5094581;28;20048;-79
2023/04/06 01:02:11;;;;;;;9.43;5.07;;;1.20;99.90;;;;;;5094053;28;20497;-79
2023/04/06 01:04:36;;;;;;;8.80;5.70;;;1.20;99.90;;;;;;5093928;28;20048;-79
2023/04/06 01:07:02;;;;;;;7.70;5.70;;;1.10;99.90;;;;;;5094097;28;20052;-79
2023/04/06 01:09:31;;;;;;;8.20;5.82;;;1.10;99.90;;;;;;5093765;28;20040;-79
2023/04/06 01:11:57;;;;;;;8.95;6.00;;;1.00;99.90;;;;;;5093120;28;20104;-79
2023/04/06 01:14:24;;;;;;;14.90;6.30;;;1.10;99.90;;;;;;5092861;28;20073;-79
2023/04/06 01:16:51;;;;;;;8.03;5.83;;;1.30;99.90;;;;;;5093836;28;20044;-79
2023/04/06 01:19:16;;;;;;;;;;;1.00;99.90;;;;;;5094326;28;20805;-79
2023/04/06 01:21:42;;;;;;;8.95;5.60;;;1.00;99.90;;;;;;5094063;28;20024;-79
2023/04/06 01:24:08;;;;;;;8.27;6.13;;;1.00;99.90;;;;;;5093818;28;20046;-79
2023/04/06 01:26:35;;;;;;;7.65;5.65;;;0.90;99.90;;;;;;5093812;28;20479;-79
2023/04/06 01:29:01;;;;;;;7.28;5.68;;;0.90;99.90;;;;;;5092698;28;20131;-79
2023/04/06 01:31:27;;;;;;;7.90;6.13;;;0.80;99.90;;;;;;5093828;28;20078;-79
2023/04/06 01:33:53;;;;;;;10.95;6.22;;;0.80;99.90;;;;;;5093736;28;20040;-79
2023/04/06 01:36:19;;;;;;;11.63;5.57;;;0.70;99.90;;;;;;5093564;28;20040;-79
2023/04/06 01:38:45;;;;;;;10.73;5.67;;;0.70;99.90;;;;;;5092450;28;20048;-79
2023/04/06 01:41:11;;;;;;;8.48;5.65;;;0.70;99.90;;;;;;5093795;28;20040;-79
2023/04/06 01:43:37;;;;;;;8.15;5.80;;;0.60;99.90;;;;;;5075805;28;20113;-79
2023/04/06 01:46:03;;;;;;;9.40;6.28;;;0.60;99.90;;;;;;5093599;28;20051;-79
2023/04/06 01:48:29;;;;;;;10.97;6.20;;;1.50;99.90;;;;;;5109305;28;20526;-79
2023/04/06 01:50:54;;;;;;;9.68;6.38;;;0.50;99.90;;;;;;5093489;28;20048;-79
2023/04/06 01:53:20;;;;;;;10.50;6.03;;;0.50;99.90;;;;;;5093381;28;20040;-79
2023/04/06 01:55:46;;;;;;;9.50;6.30;;;0.50;99.90;;;;;;5093196;28;20036;-80
2023/04/06 01:58:12;;;;;;;9.35;6.55;;;0.40;99.90;;;;;;5092331;28;20126;-79
2023/04/06 02:00:38;;;;;;;11.02;6.03;;;1.60;99.90;;;;;;5092670;28;20087;-79
2023/04/06 02:03:04;;;;;;;9.40;6.20;;;0.40;99.90;;;;;;5109343;28;20129;-79
2023/04/06 02:05:31;;;;;;;8.95;6.43;;;0.40;99.90;;;;;;5093475;28;20055;-79
2023/04/06 02:07:57;;;;;;;;;;;0.40;99.90;;;;;;5093859;28;20046;-79
2023/04/06 02:10:23;;;;;;;10.00;5.95;;;0.30;99.90;;;;;;5093417;28;20031;-79
2023/04/06 02:12:49;;;;;;;9.10;6.35;;;0.30;99.90;;;;;;5092471;28;20051;-79
2023/04/06 02:15:15;;;;;;;9.13;6.05;;;0.30;99.90;;;;;;5093333;28;20040;-79
2023/04/06 02:17:41;;;;;;;10.23;5.97;;;0.30;99.90;;;;;;5093243;28;20040;-79
2023/04/06 02:20:07;;;;;;;7.65;6.43;;;0.30;99.90;;;;;;5093340;28;20043;-79
2023/04/06 02:22:34;;;;;;;10.07;6.33;;;0.30;99.90;;;;;;5093299;28;20466;-79
2023/04/06 02:24:59;;;;;;;9.67;5.90;;;0.30;99.90;;;;;;5092347;28;20067;-80
2023/04/06 02:27:25;;;;;;;8.43;5.68;;;0.30;99.90;;;;;;5093240;28;20805;-79
2023/04/06 02:29:50;;;;;;;12.50;5.80;;;0.30;99.90;;;;;;5096682;28;20117;-79
2023/04/06 02:32:16;;;;;;;8.50;6.15;;;0.30;99.90;;;;;;5096824;28;20048;-79
2023/04/06 02:34:41;;;;;;;14.15;6.30;;;0.30;99.90;;;;;;5097070;28;20040;-79
2023/04/06 02:37:07;;;;;;;10.38;6.13;;;0.20;99.90;;;;;;5097139;28;20500;-79
2023/04/06 02:39:32;;;;;;;8.60;5.93;;;0.30;99.90;;;;;;5097079;28;20059;-79
2023/04/06 02:41:58;;;;;;;11.27;6.38;;;0.20;99.90;;;;;;5096306;28;20067;-79
2023/04/06 02:44:24;;;;;;;7.70;5.78;;;0.20;99.90;;;;;;5099413;28;20404;-79
2023/04/06 02:46:50;;;;;;;7.15;5.72;;;0.30;99.90;;;;;;5099123;28;20148;-80
2023/04/06 02:49:15;;;;;;;8.40;6.23;;;-0.30;99.90;;;;;;5100036;28;20060;-79
2023/04/06 02:51:41;;;;;;;8.80;5.65;;;0.30;99.90;;;;;;5101203;28;20135;-80
2023/04/06 02:54:07;;;;;;;9.73;6.32;;;0.30;99.90;;;;;;5100059;28;20105;-79
2023/04/06 02:56:32;;;;;;;8.20;6.30;;;0.20;99.90;;;;;;5100159;28;20043;-79
2023/04/06 02:58:58;;;;;;;10.50;6.70;;;0.30;99.90;;;;;;5096564;28;20040;-77
2023/04/06 03:01:24;;;;;;;8.70;6.50;;;0.20;99.90;;;;;;5096457;28;20091;-78
2023/04/06 03:03:49;;;;;;;9.35;6.18;;;0.20;99.90;;;;;;5096570;28;20069;-79
2023/04/06 03:06:15;;;;;;;9.13;6.10;;;0.20;99.90;;;;;;5112530;28;20071;-78
2023/04/06 03:08:40;;;;;;;8.63;5.95;;;0.20;99.90;;;;;;5096419;28;20126;-78
2023/04/06 03:11:06;;;;;;;9.30;6.18;;;0.20;99.90;;;;;;5096080;28;20044;-78
2023/04/06 03:13:32;;;;;;;11.02;6.00;;;0.10;99.90;;;;;;5096375;28;20048;-78
2023/04/06 03:15:57;;;;;;;13.38;6.47;;;0.10;99.90;;;;;;5096288;28;20040;-78
2023/04/06 03:18:24;;;;;;;8.88;6.13;;;0.10;99.90;;;;;;5096290;28;20036;-78
2023/04/06 03:20:50;;;;;;;9.80;5.68;;;0.10;99.90;;;;;;5096217;28;20044;-78
2023/04/06 03:23:16;;;;;;;9.07;6.10;;;0.10;99.90;;;;;;5095957;28;20040;-78
2023/04/06 03:25:41;;;;;;;8.80;6.10;;;0.10;99.90;;;;;;5096336;28;20286;-78
2023/04/06 03:28:07;;;;;;;8.57;6.10;;;0.10;99.90;;;;;;5096379;28;20043;-78
2023/04/06 03:30:34;;;;;;;11.15;6.25;;;0.10;99.90;;;;;;5095895;28;20090;-78
2023/04/06 03:33:00;;;;;;;10.25;6.43;;;0.10;99.90;;;;;;5096177;28;20496;-78
2023/04/06 03:35:25;;;;;;;11.35;6.18;;;0.10;99.90;;;;;;5095879;28;20077;-78
2023/04/06 03:37:51;;;;;;;7.85;5.78;;;0.10;99.90;;;;;;5095851;28;20052;-79
2023/04/06 03:40:16;;;;;;;11.10;6.65;;;0.10;99.90;;;;;;5096073;28;20127;-78
2023/04/06 03:42:42;;;;;;;10.85;6.30;;;0.10;99.90;;;;;;5096058;28;20093;-78
2023/04/06 03:45:08;;;;;;;8.73;5.70;;;0.10;99.90;;;;;;5094808;28;20040;-78
2023/04/06 03:47:34;;;;;;;10.45;6.10;;;0.10;99.90;;;;;;5095494;28;20442;-78
2023/04/06 03:50:00;;;;;;;10.15;5.80;;;0.10;99.90;;;;;;5095597;28;20056;-78
2023/04/06 03:52:26;;;;;;;10.43;6.78;;;0.10;99.90;;;;;;5094720;28;20109;-78
2023/04/06 03:54:51;;;;;;;8.80;5.53;;;0.00;99.90;;;;;;5096062;28;20093;-78
2023/04/06 03:57:17;;;;;;;8.77;6.30;;;0.00;99.90;;;;;;5095536;28;20090;-78
2023/04/06 03:59:43;;;;;;;11.30;6.28;;;0.00;99.90;;;;;;5095527;28;20094;-78
2023/04/06 04:02:08;;;;;;;11.32;6.53;;;0.00;99.90;;;;;;5095539;28;20174;-78
2023/04/06 04:04:34;;;;;;;10.73;6.50;;;0.00;99.90;;;;;;5095537;28;20047;-78
2023/04/06 04:07:00;;;;;;;11.00;6.30;;;0.00;99.90;;;;;;5077505;28;20048;-78
2023/04/06 04:09:25;;;;;;;12.20;6.40;;;0.00;99.90;;;;;;5095346;28;20174;-79
2023/04/06 04:11:51;;;;;;;8.70;6.40;;;1.00;99.90;;;;;;5095396;28;20504;-78
2023/04/06 04:14:16;;;;;;;11.50;6.53;;;-0.10;99.90;;;;;;5077231;28;20135;-78
2023/04/06 04:16:42;;;;;;;9.43;6.43;;;-0.10;99.90;;;;;;5095220;28;20087;-80
2023/04/06 04:19:08;;;;;;;9.77;6.55;;;-0.10;99.90;;;;;;5095349;28;20050;-78
2023/04/06 04:21:34;;;;;;;10.38;6.50;;;-0.10;99.90;;;;;;5095052;28;20048;-78
2023/04/06 04:23:59;;;;;;;11.80;7.05;;;-0.10;99.90;;;;;;5094903;28;20465;-80
2023/04/06 04:26:25;;;;;;;11.05;7.22;;;-0.10;99.90;;;;;;5095019;28;20050;-78
2023/04/06 04:28:51;;;;;;;8.85;6.25;;;-0.10;99.90;;;;;;5093553;28;20040;-78
2023/04/06 04:31:21;;;;;;;10.90;6.60;;;0.10;99.90;;;;;;5095145;28;20043;-78
2023/04/06 04:33:47;;;;;;;9.00;6.60;;;-0.10;99.90;;;;;;5093924;28;20040;-78
2023/04/06 04:36:12;;;;;;;9.43;6.45;;;-0.10;99.90;;;;;;5094693;28;20128;-78
2023/04/06 04:38:38;;;;;;;13.00;7.05;;;0.00;99.90;;;;;;5093323;28;20048;-77
2023/04/06 04:41:04;;;;;;;12.10;7.05;;;-0.10;99.90;;;;;;5094887;28;20039;-78
2023/04/06 04:43:29;;;;;;;10.18;7.20;;;-0.10;99.90;;;;;;5094502;28;20039;-78
2023/04/06 04:45:55;;;;;;;11.40;7.22;;;-0.10;99.90;;;;;;5093470;28;20076;-77
2023/04/06 04:48:20;;;;;;;9.10;6.68;;;0.00;99.90;;;;;;5094354;28;20051;-77
2023/04/06 04:50:46;;;;;;;9.30;5.97;;;0.00;99.90;;;;;;5093830;28;20453;-79
2023/04/06 04:53:12;;;;;;;11.07;7.15;;;0.00;99.90;;;;;;5109990;28;20051;-83
2023/04/06 04:55:37;;;;;;;11.75;6.80;;;0.10;99.90;;;;;;5094028;28;20097;-83
2023/04/06 04:58:03;;;;;;;11.95;7.05;;;0.10;99.90;;;;;;5076823;28;20497;-78
2023/04/06 05:00:29;;;;;;;10.65;6.93;;;0.20;99.90;;;;;;5094296;28;20478;-81
2023/04/06 05:02:55;;;;;;;14.65;7.53;;;0.20;99.90;;;;;;5093471;28;20503;-80
2023/04/06 05:05:20;;;;;;;12.55;7.80;;;0.20;99.90;;;;;;5094132;28;20113;-79
2023/04/06 05:07:46;;;;;;;15.18;8.98;;;0.20;99.90;;;;;;5092818;28;20452;-81
2023/04/06 05:10:12;;;;;;;15.95;8.82;;;0.30;99.90;;;;;;5093374;28;20044;-79
2023/04/06 05:12:37;;;;;;;12.25;8.00;;;0.30;99.90;;;;;;5093245;28;20047;-80
2023/04/06 05:15:03;;;;;;;14.73;8.45;;;0.30;99.90;;;;;;5092732;28;20408;-81
2023/04/06 05:17:29;;;;;;;16.50;8.68;;;0.30;99.90;;;;;;5092978;28;20055;-81
2023/04/06 05:19:55;;;;;;;15.52;8.80;;;0.30;99.90;;;;;;5093874;28;20040;-79
2023/04/06 05:22:20;;;;;;;15.55;8.60;;;0.40;99.90;;;;;;5092674;28;20052;-79
2023/04/06 05:24:46;;;;;;;15.30;8.80;;;0.40;99.90;;;;;;5093829;28;20059;-80
2023/04/06 05:27:12;;;;;;;15.13;8.55;;;0.40;99.90;;;;;;5093712;28;20037;-78
2023/04/06 05:29:37;;;;;;;14.55;8.27;;;0.40;99.90;;;;;;5093631;28;20051;-78
2023/04/06 05:32:03;;;;;;;15.63;9.38;;;0.50;99.90;;;;;;5093828;28;20541;-80
2023/04/06 05:34:29;;;;;;;14.68;9.23;;;0.50;99.90;;;;;;5092680;28;20392;-78
2023/04/06 05:36:55;;;;;;;13.85;8.18;;;0.60;99.90;;;;;;5093615;28;20079;-78
2023/04/06 05:39:20;;;;;;;13.77;8.80;;;1.20;99.90;;;;;;5093624;28;20050;-79
2023/04/06 05:41:46;;;;;;;13.20;8.07;;;0.60;99.90;;;;;;5093497;28;20446;-78
2023/04/06 05:44:11;;;;;;;16.80;8.50;;;0.70;99.90;;;;;;5093523;28;20087;-78
2023/04/06 05:46:37;;;;;;;17.38;8.25;;;0.80;99.90;;;;;;5093500;28;20094;-78
2023/04/06 05:49:03;;;;;;;11.20;7.22;;;0.80;99.90;;;;;;5093492;28;20059;-76
2023/04/06 05:51:28;;;;;;;12.55;6.78;;;0.80;99.90;;;;;;5093434;28;20136;-77
2023/04/06 05:53:54;;;;;;;12.05;7.70;;;0.90;99.90;;;;;;5093463;28;20044;-87
2023/04/06 05:56:20;;;;;;;12.80;7.43;;;1.00;99.90;;;;;;5092257;28;20088;-80
2023/04/06 05:58:46;;;;;;;15.30;8.48;;;1.00;99.90;;;;;;5093557;28;20048;-80
2023/04/06 06:01:11;;;;;;;10.02;7.28;;;1.10;99.90;;;;;;5093385;28;20055;-79
2023/04/06 06:03:37;;;;;;;15.65;7.63;;;1.10;99.90;;;;;;5096742;28;20131;-78
2023/04/06 06:06:04;;;;;;;16.60;8.07;;;1.20;99.90;;;;;;5079685;28;20044;-78
2023/04/06 06:08:30;;;;;;;11.00;7.60;;;1.20;99.90;;;;;;5096125;28;20048;-80
2023/04/06 06:10:56;;;;;;;12.10;7.88;;;1.30;99.90;;;;;;5096246;28;20043;-78
2023/04/06 06:13:22;;;;;;;10.30;7.47;;;1.30;99.90;;;;;;5096138;28;20055;-76
2023/04/06 06:15:48;;;;;;;10.20;7.10;;;1.40;99.90;;;;;;5097430;28;20065;-76
2023/04/06 06:18:14;;;;;;;11.60;7.60;;;1.40;99.90;;;;;;5097312;28;20130;-80
2023/04/06 06:20:39;;;;;;;10.85;7.07;;;1.60;99.90;;;;;;5097265;28;20087;-77
2023/04/06 06:23:05;;;;;;;12.82;7.57;;;1.50;99.90;;;;;;5097169;28;20048;-76
2023/04/06 06:25:30;;;;;;;11.70;7.80;;;1.60;99.90;;;;;;5097214;28;20040;-76
2023/04/06 06:27:57;;;;;;;11.18;8.07;;;1.80;99.90;;;;;;5095298;28;20070;-76
2023/04/06 06:30:22;;;;;;;10.77;7.60;;;1.70;99.90;;;;;;5096577;28;20123;-77
2023/04/06 06:32:48;;;;;;;13.70;7.88;;;2.20;99.90;;;;;;5112822;28;20491;-76
2023/04/06 06:35:14;;;;;;;15.13;7.47;;;1.90;99.90;;;;;;5096551;28;20044;-79
2023/04/06 06:37:40;;;;;;;13.80;8.23;;;2.00;99.90;;;;;;5096518;28;20384;-80
2023/04/06 06:40:06;;;;;;;11.40;7.65;;;2.10;99.90;;;;;;5096706;28;20051;-80
2023/04/06 06:42:31;;;;;;;14.10;8.02;;;2.20;99.90;;;;;;5095513;28;20090;-79
2023/04/06 06:44:57;;;;;;;16.77;7.05;;;2.30;99.90;;;;;;5112322;28;20082;-78
2023/04/06 06:47:22;;;;;;;13.70;7.80;;;2.40;99.90;;;;;;5096336;28;20059;-78
2023/04/06 06:49:48;;;;;;;12.77;7.97;;;2.60;99.90;;;;;;5096155;28;20048;-77
2023/04/06 06:52:14;;;;;;;15.20;7.65;;;2.70;99.90;;;;;;5111977;28;20048;-78
2023/04/06 06:54:40;;;;;;;12.75;7.47;;;2.80;99.90;;;;;;5096150;28;20062;-79
2023/04/06 06:57:05;;;;;;;11.95;7.97;;;2.90;99.90;;;;;;5096408;28;20036;-81
2023/04/06 06:59:31;;;;;;;16.20;8.50;;;3.00;99.90;;;;;;5095830;28;20040;-79
2023/04/06 07:01:56;;;;;;;12.27;8.40;;;3.10;99.90;;;;;;5096082;28;20052;-80
2023/04/06 07:04:22;;;;;;;14.15;8.77;;;3.70;99.90;;;;;;5112023;28;20424;-77
2023/04/06 07:06:48;;;;;;;12.65;8.07;;;3.40;99.90;;;;;;5095552;28;20127;-76
2023/04/06 07:09:13;;;;;;;12.57;7.82;;;3.60;99.90;;;;;;5095933;28;20052;-77
2023/04/06 07:11:39;;;;;;;10.70;8.13;;;3.60;99.90;;;;;;5094958;28;20539;-78
2023/04/06 07:14:04;;;;;;;12.25;8.43;;;3.70;99.90;;;;;;5095304;28;20044;-76
2023/04/06 07:16:30;;;;;;;13.75;8.85;;;3.80;99.90;;;;;;5094825;28;20475;-77
2023/04/06 07:18:56;;;;;;;12.85;8.07;;;4.00;99.90;;;;;;5094023;28;20495;-77
2023/04/06 07:21:21;;;;;;;12.40;8.63;;;4.10;99.90;;;;;;5095588;28;20040;-76
2023/04/06 07:23:47;;;;;;;9.52;7.68;;;4.20;99.90;;;;;;5095162;28;20044;-76
2023/04/06 07:26:13;;;;;;;13.80;8.20;;;4.40;99.90;;;;;;5095477;28;20510;-75
2023/04/06 07:28:39;;;;;;;13.65;9.25;;;4.50;99.90;;;;;;5095522;28;20041;-76
2023/04/06 07:31:05;;;;;;;15.32;8.57;;;4.70;99.90;;;;;;5095158;28;20518;-76
2023/04/06 07:33:31;;;;;;;14.65;8.20;;;4.80;99.90;;;;;;5095372;28;20404;-76
2023/04/06 07:35:58;;;;;;;12.68;8.98;;;4.90;99.90;;;;;;5095442;28;20048;-76
2023/04/06 07:38:23;;;;;;;;;;;4.90;99.90;;;;;;5095404;28;20043;-75
2023/04/06 07:40:49;;;;;;;12.88;8.40;;;5.00;99.90;;;;;;5095272;28;19920;-75
2023/04/06 07:43:16;;;;;;;13.27;8.43;;;5.10;99.90;;;;;;5095109;28;20101;-75
2023/04/06 07:45:41;;;;;;;15.52;8.55;;;5.20;99.90;;;;;;5095214;28;20102;-75
2023/04/06 07:48:07;;;;;;;12.20;8.15;;;5.30;99.90;;;;;;5095115;28;20071;-75
2023/04/06 07:50:32;;;;;;;12.70;8.18;;;6.30;99.90;;;;;;5095248;28;20445;-75
2023/04/06 07:52:58;;;;;;;14.20;8.25;;;5.50;99.90;;;;;;5094406;28;20087;-75
2023/04/06 07:55:24;;;;;;;11.82;8.20;;;5.70;99.90;;;;;;5095146;28;20403;-75
2023/04/06 07:57:50;;;;;;;14.68;8.90;;;5.80;99.90;;;;;;5094911;28;20040;-75
2023/04/06 08:00:16;;;;;;;16.53;8.50;;;5.90;99.90;;;;;;5094909;28;20054;-75
2023/04/06 08:02:41;;;;;;;12.27;8.05;;;6.10;99.90;;;;;;5093528;28;20118;-75
2023/04/06 08:05:07;;;;;;;14.27;7.75;;;6.20;99.90;;;;;;5094774;28;20047;-75
2023/04/06 08:07:33;;;;;;;17.85;8.40;;;6.40;99.90;;;;;;5094604;28;20044;-75
2023/04/06 08:09:58;;;;;;;15.65;8.73;;;6.60;99.90;;;;;;5094715;28;20396;-75
2023/04/06 08:12:24;;;;;;;11.75;7.78;;;6.70;99.90;;;;;;5094531;28;20040;-75
2023/04/06 08:14:50;;;;;;;13.70;7.68;;;6.70;99.90;;;;;;5094285;28;20184;-75
2023/04/06 08:17:15;;;;;;;13.15;7.65;;;7.00;99.90;;;;;;5094733;28;20539;-75
2023/04/06 08:19:44;;;;;;;13.00;8.57;;;7.00;99.90;;;;;;5094596;28;20396;-75
2023/04/06 08:22:10;;;;;;;13.95;8.50;;;7.20;99.90;;;;;;5093868;28;20495;-75
2023/04/06 08:24:35;;;;;;;12.90;7.82;;;7.30;99.90;;;;;;5094609;28;20075;-75
2023/04/06 08:27:01;;;;;;;12.35;8.35;;;7.40;99.90;;;;;;5093432;28;20093;-75
2023/04/06 08:29:27;;;;;;;13.52;7.95;;;7.60;99.90;;;;;;5094173;28;20047;-74
2023/04/06 08:31:52;;;;;;;13.93;7.97;;;7.60;99.90;;;;;;5094177;28;20077;-75
2023/04/06 08:34:18;;;;;;;17.08;7.57;;;8.00;99.90;;;;;;5094074;28;20075;-75
2023/04/06 08:36:43;;;;;;;16.23;7.88;;;7.90;99.90;;;;;;5093858;28;20139;-76
2023/04/06 08:39:09;;;;;;;12.02;7.85;;;8.00;99.90;;;;;;5094182;28;20143;-75
2023/04/06 08:41:35;;;;;;;14.77;8.40;;;8.40;99.90;;;;;;5094277;28;20036;-75
2023/04/06 08:44:02;;;;;;;14.07;8.05;;;8.70;99.90;;;;;;5093721;28;20108;-76
2023/04/06 08:46:30;;;;;;;12.73;7.70;;;8.30;99.90;;;;;;5094287;28;20044;-75
2023/04/06 08:49:01;;;;;;;13.55;8.07;;;8.30;99.90;;;;;;5093948;28;20427;-74
2023/04/06 08:51:28;;;;;;;13.93;9.00;;;8.50;99.90;;;;;;5093977;28;20052;-75
2023/04/06 08:53:55;;;;;;;17.95;8.23;;;8.60;99.90;;;;;;5093709;28;20036;-75
2023/04/06 08:56:25;;;;;;;12.27;7.93;;;8.70;99.90;;;;;;5093917;28;20044;-75
2023/04/06 08:58:52;;;;;;;14.48;8.50;;;8.90;99.90;;;;;;5093272;28;20040;-76
2023/04/06 09:01:25;;;;;;;15.68;8.50;;;9.00;99.90;;;;;;5093744;28;20147;-75
2023/04/06 09:03:55;;;;;;;12.93;8.18;;;9.10;99.90;;;;;;5093492;28;20446;-77
2023/04/06 09:06:21;;;;;;;11.93;8.63;;;9.30;99.90;;;;;;5093423;28;20063;-77
2023/04/06 09:08:47;;;;;;;14.07;9.20;;;9.40;99.90;;;;;;5092411;28;20048;-82
2023/04/06 09:11:14;;;;;;;14.32;8.30;;;9.40;99.90;;;;;;5093745;28;20487;-76
2023/04/06 09:13:51;;;;;;;11.30;8.18;;;9.60;99.90;;;;;;5093229;28;20032;-77
2023/04/06 09:16:18;;;;;;;16.90;8.83;;;9.60;99.90;;;;;;5093516;28;20109;-75
2023/04/06 09:18:44;;;;;;;14.95;8.60;;;9.70;99.90;;;;;;5093586;28;20127;-75
2023/04/06 09:21:10;;;;;;;16.52;9.40;;;9.80;99.90;;;;;;5093611;28;20127;-75
2023/04/06 09:23:36;;;;;;;14.95;8.70;;;9.90;99.90;;;;;;5093617;28;20088;-74
2023/04/06 09:26:12;;;;;;;13.50;8.80;;;10.00;99.90;;;;;;5093388;28;20032;-74
2023/04/06 09:28:49;;;;;;;15.60;9.10;;;10.20;99.90;;;;;;5093476;28;20485;-75
2023/04/06 09:31:21;;;;;;;17.92;8.82;;;10.50;99.90;;;;;;5093480;28;20119;-75
2023/04/06 09:33:46;;;;;;;13.52;8.60;;;10.80;99.90;;;;;;5092435;28;20036;-75
2023/04/06 09:36:14;;;;;;;12.73;8.43;;;11.00;99.90;;;;;;5093511;28;20062;-75
2023/04/06 09:38:53;;;;;;;13.73;9.07;;;11.00;99.90;;;;;;5093185;28;20119;-75
2023/04/06 09:41:30;;;;;;;14.45;8.77;;;11.30;99.90;;;;;;5093282;28;20464;-75
2023/04/06 09:44:09;;;;;;;15.73;9.00;;;11.10;99.90;;;;;;5093334;28;20083;-75
2023/04/06 09:46:38;;;;;;;13.52;9.25;;;11.00;99.90;;;;;;5093714;28;20126;-75
2023/04/06 09:49:05;;;;;;;16.67;9.73;;;10.90;99.90;;;;;;5093414;28;20060;-75
2023/04/06 09:51:35;;;;;;;16.35;8.98;;;10.90;99.90;;;;;;5093438;28;20105;-74
2023/04/06 09:54:03;;;;;;;15.65;9.60;;;10.70;98.70;;;;;;5093002;28;20051;-74
2023/04/06 09:56:37;;;;;;;15.82;9.23;;;10.80;99.90;;;;;;5092748;28;20137;-75
2023/04/06 09:59:10;;;;;;;15.20;10.07;;;10.80;99.40;;;;;;5090545;28;20040;-74
2023/04/06 10:01:36;;;;;;;16.10;9.73;;;10.90;99.90;;;;;;5085669;28;20051;-74
2023/04/06 10:04:17;;;;;;;17.35;9.90;;;11.00;99.90;;;;;;5076884;28;20044;-79
2023/04/06 10:06:43;;;;;;;14.75;9.93;;;10.90;99.90;;;;;;5079837;28;20490;-75
2023/04/06 10:09:09;;;;;;;16.77;10.55;;;11.00;99.90;;;;;;5073004;28;20048;-77
2023/04/06 10:11:35;;;;;;;20.08;10.57;;;11.00;99.90;;;;;;5093785;28;20047;-77
2023/04/06 10:14:01;;;;;;;16.50;9.82;;;10.90;98.90;;;;;;5092015;28;20473;-78
2023/04/06 10:16:29;;;;;;;18.77;10.32;;;11.00;99.50;;;;;;5093225;28;20079;-77
2023/04/06 10:19:01;;;;;;;13.98;9.52;;;11.00;99.90;;;;;;5092746;28;20032;-78
2023/04/06 10:21:29;;;;;;;17.40;10.82;;;11.00;99.20;;;;;;5076633;28;20068;-77
2023/04/06 10:23:59;;;;;;;18.20;11.05;;;11.20;99.90;;;;;;5079844;28;20040;-76
2023/04/06 10:26:25;;;;;;;18.27;11.00;;;11.50;99.80;;;;;;5081136;28;20384;-78
2023/04/06 10:28:51;;;;;;;19.88;11.10;;;11.50;98.70;;;;;;5072898;28;20041;-77
2023/04/06 10:31:25;;;;;;;20.65;11.25;;;11.50;98.60;;;;;;5082835;28;20048;-75
2023/04/06 10:34:00;;;;;;;17.63;11.05;;;11.60;99.20;;;;;;5092873;28;20101;-78
2023/04/06 10:36:33;;;;;;;18.77;11.15;;;11.70;98.90;;;;;;5093048;28;20044;-74
2023/04/06 10:39:04;;;;;;;18.48;11.38;;;11.80;98.30;;;;;;5072755;28;20087;-76
2023/04/06 10:41:41;;;;;;;17.13;11.15;;;11.90;98.10;;;;;;5085235;28;20119;-79
2023/04/06 10:44:06;;;;;;;16.75;11.05;;;12.00;98.40;;;;;;5092937;28;20055;-82
2023/04/06 10:46:33;;;;;;;20.17;12.07;;;12.30;97.20;;;;;;5091573;28;20044;-75
2023/04/06 10:49:11;;;;;;;18.50;12.10;;;12.30;99.00;;;;;;5092588;28;20052;-75
2023/04/06 10:51:38;;;;;;;18.67;11.13;;;12.40;98.00;;;;;;5095895;28;20052;-75
2023/04/06 10:54:06;;;;;;;20.50;11.43;;;12.40;97.40;;;;;;5096127;28;20047;-75
2023/04/06 10:56:36;;;;;;;20.98;12.60;;;12.40;98.50;;;;;;5096429;28;20094;-76
2023/04/06 10:59:02;;;;;;;22.23;13.50;;;12.40;97.70;;;;;;5096533;28;20044;-75
2023/04/06 11:01:27;;;;;;;20.83;12.93;;;12.50;97.00;;;;;;5096389;28;20055;-75
2023/04/06 11:04:00;;;;;;;19.83;12.88;;;12.50;97.50;;;;;;5096221;28;20070;-75
2023/04/06 11:06:29;;;;;;;21.77;13.75;;;12.50;96.70;;;;;;5095132;28;20062;-75
2023/04/06 11:08:55;;;;;;;23.02;14.13;;;12.50;97.70;;;;;;5096039;28;20047;-75
2023/04/06 11:11:26;;;;;;;25.38;13.50;;;12.80;96.80;;;;;;5096236;28;20046;-75
2023/04/06 11:13:59;;;;;;;21.27;13.23;;;12.90;95.30;;;;;;5096103;28;20036;-76
2023/04/06 11:16:26;;;;;;;21.25;13.35;;;13.00;95.40;;;;;;5096010;28;20104;-75
2023/04/06 11:18:58;;;;;;;24.33;13.40;;;13.10;96.10;;;;;;5095954;28;20040;-75
2023/04/06 11:21:48;;;;;;;22.58;13.57;;;13.00;95.50;;;;;;5095733;28;20052;-75
2023/04/06 11:24:19;;;;;;;23.38;13.52;;;12.80;96.00;;;;;;5095316;28;20500;-75
2023/04/06 11:26:55;;;;;;;20.92;12.52;;;12.70;96.30;;;;;;5095812;28;20043;-75
2023/04/06 11:29:23;;;;;;;23.63;13.05;;;12.50;94.50;;;;;;5095982;28;20117;-74
2023/04/06 11:31:57;;;;;;;22.92;13.98;;;12.50;95.20;;;;;;5095587;28;20048;-74
2023/04/06 11:34:24;;;;;;;22.17;13.50;;;12.50;95.60;;;;;;5095799;28;20040;-75
2023/04/06 11:36:55;;;;;;;20.80;13.05;;;12.60;95.90;;;;;;5095062;28;20686;-74
2023/04/06 11:39:23;;;;;;;21.30;12.57;;;12.50;95.00;;;;;;5095691;28;20047;-74
2023/04/06 11:41:54;;;;;;;22.00;13.98;;;12.50;94.90;;;;;;5095430;28;20557;-74
2023/04/06 11:44:32;;;;;;;24.65;13.60;;;12.60;96.10;;;;;;5094083;28;20048;-74
2023/04/06 11:46:58;;;;;;;22.35;12.90;;;12.70;95.60;;;;;;5095121;28;20056;-74
2023/04/06 11:49:28;;;;;;;21.75;14.23;;;12.70;95.50;;;;;;5094979;28;20063;-74
2023/04/06 11:51:54;;;;;;;22.30;13.70;;;12.70;95.00;;;;;;5095124;28;20072;-75
2023/04/06 11:54:50;;;;;;;20.90;14.05;;;12.70;95.10;;;;;;5095038;28;20044;-75
2023/04/06 11:57:17;;;;;;;22.75;14.02;;;12.80;94.90;;;;;;5073615;28;20516;-75
2023/04/06 11:59:43;;;;;;;25.58;14.02;;;12.90;95.30;;;;;;5072719;28;20049;-76
2023/04/06 12:02:09;;;;;;;22.17;13.83;;;12.90;94.70;;;;;;5074955;28;20498;-75
2023/04/06 12:04:35;;;;;;;23.48;14.13;;;12.90;95.30;;;;;;5074902;28;20040;-76
2023/04/06 12:07:02;;;;;;;20.58;12.85;;;12.90;95.70;;;;;;5073875;28;20117;-75
2023/04/06 12:09:27;;;;;;;24.10;14.82;;;13.00;93.80;;;;;;5073903;28;20541;-76
2023/04/06 12:11:53;;;;;;;23.10;13.70;;;12.90;94.90;;;;;;5074686;28;20123;-76
2023/04/06 12:14:19;;;;;;;21.38;14.88;;;13.10;94.60;;;;;;5074266;28;20044;-75
2023/04/06 12:16:44;;;;;;;23.15;13.82;;;13.10;95.70;;;;;;5074648;28;20052;-76
2023/04/06 12:19:10;;;;;;;24.75;13.52;;;13.30;95.30;;;;;;5074574;28;20494;-75
2023/04/06 12:21:37;;;;;;;25.90;15.25;;;13.20;95.00;;;;;;5074528;28;20448;-75
2023/04/06 12:24:03;;;;;;;23.40;13.00;;;13.20;94.30;;;;;;5073736;28;20485;-77
2023/04/06 12:26:30;;;;;;;22.13;13.80;;;13.10;92.40;;;;;;5074400;28;20471;-77
2023/04/06 12:28:55;;;;;;;23.70;13.45;;;13.10;93.60;;;;;;5072790;28;20342;-76
2023/04/06 12:31:22;;;;;;;22.75;12.95;;;13.20;92.70;;;;;;5074737;28;20056;-77
2023/04/06 12:33:49;;;;;;;23.15;13.88;;;13.10;93.60;;;;;;5074379;28;20040;-78
2023/04/06 12:36:18;;;;;;;24.75;14.38;;;13.20;93.70;;;;;;5074219;28;20040;-77
2023/04/06 12:38:45;;;;;;;22.88;13.85;;;13.40;93.10;;;;;;5072879;28;20044;-77
2023/04/06 12:41:11;;;;;;;;;;;13.20;93.60;;;;;;5074416;28;20087;-76
2023/04/06 12:43:37;;;;;;;22.60;13.65;;;13.30;94.70;;;;;;5073905;28;20437;-77